Terminal Aerodrome Forecast
Issued by NWS

Current Version | Previous Version | Graphics & Text | Print | Product List | Glossary On
Versions: 1 2 3 4 5 6 7 8 9 10 11 12 13 14 15 16 17 18
000
FTUS41 KPBZ 031504 AAA
TAFHLG
TAF AMD
KHLG 031504Z 0315/0412 28007KT P6SM OVC017
     FM031800 27007KT P6SM OVC022
     FM040000 27006KT P6SM BKN035=

USA.gov is the U.S. government's official web portal to all federal, state and local government web resources and services.